Time;durP1;ratioP1;P1;durP2;ratioP2;P2;SDS_P1;SDS_P2;PMS_P1;PMS_P2;Temp;Humidity;BMP_temperature;BMP_pressure;BME280_temperature;BME280_humidity;BME280_pressure;Samples;Min_cycle;Max_cycle;Signal;HPM_P1;HPM_P2
2022/09/14 00:01:36;;;;;;;6.60;3.17;;;;;;;15.86;100.00;100758.50;5044809;28;20361;-81
2022/09/14 00:04:14;;;;;;;7.65;3.42;;;;;;;15.81;100.00;100744.84;5038902;28;20034;-76
2022/09/14 00:06:40;;;;;;;14.40;3.95;;;;;;;15.72;100.00;100740.44;5030231;28;20021;-76
2022/09/14 00:09:06;;;;;;;9.60;3.78;;;;;;;15.68;100.00;100739.06;5033556;28;20108;-81
2022/09/14 00:11:33;;;;;;;9.63;3.42;;;;;;;15.51;100.00;100738.84;5047223;28;20143;-80
2022/09/14 00:14:00;;;;;;;9.02;3.92;;;;;;;15.49;100.00;100745.28;5031927;28;20029;-76
2022/09/14 00:16:29;;;;;;;7.68;3.50;;;;;;;15.42;100.00;100745.03;5051549;28;20063;-80
2022/09/14 00:19:04;;;;;;;10.45;3.70;;;;;;;15.35;100.00;100743.97;5051716;28;20372;-80
2022/09/14 00:21:30;;;;;;;11.15;4.30;;;;;;;15.39;100.00;100747.16;5030046;28;20044;-76
2022/09/14 00:23:58;;;;;;;9.27;4.18;;;;;;;15.35;100.00;100743.97;5016865;28;20033;-81
2022/09/14 00:26:24;;;;;;;11.00;4.00;;;;;;;15.36;100.00;100745.63;5014031;28;20477;-82
2022/09/14 00:28:54;;;;;;;10.48;3.65;;;;;;;15.29;100.00;100745.38;5033919;28;20033;-81
2022/09/14 00:31:21;;;;;;;11.07;3.53;;;;;;;15.24;100.00;100741.50;5040584;28;20025;-82
2022/09/14 00:33:48;;;;;;;11.82;3.50;;;;;;;15.28;100.00;100749.00;5051512;28;20021;-81
2022/09/14 00:36:19;;;;;;;11.05;3.45;;;;;;;15.11;100.00;100747.13;5050326;28;20047;-81
2022/09/14 00:38:45;;;;;;;9.95;3.58;;;;;;;15.19;100.00;100738.44;5015691;28;20445;-82
2022/09/14 00:41:18;;;;;;;10.98;3.50;;;;;;;15.19;100.00;100733.13;5014365;28;20025;-81
2022/09/14 00:43:52;;;;;;;;;;;;;;;15.31;100.00;100726.69;5036779;28;20037;-81
2022/09/14 00:46:17;;;;;;;10.95;3.83;;;;;;;15.14;100.00;100724.78;5029920;28;19920;-82
2022/09/14 00:48:43;;;;;;;11.13;3.33;;;;;;;15.19;100.00;100728.66;5054279;28;20029;-81
2022/09/14 00:51:12;;;;;;;7.85;3.33;;;;;;;15.04;100.00;100711.56;5031386;28;20026;-82
2022/09/14 00:53:38;;;;;;;9.85;3.17;;;;;;;15.08;100.00;100709.47;5031527;28;20123;-82
2022/09/14 00:56:03;;;;;;;10.75;3.72;;;;;;;15.07;100.00;100699.84;5049358;28;20075;-81
2022/09/14 00:58:28;;;;;;;6.57;3.20;;;;;;;15.08;100.00;100704.16;5051608;28;20055;-76
2022/09/14 01:00:54;;;;;;;11.30;3.50;;;;;;;15.02;100.00;100693.19;5033435;28;20025;-80
2022/09/14 01:03:19;;;;;;;10.38;4.32;;;;;;;15.03;100.00;100683.41;5033709;28;20104;-80
2022/09/14 01:06:16;;;;;;;13.82;4.35;;;;;;;15.10;100.00;100686.31;5036205;28;20036;-79
2022/09/14 01:09:10;;;;;;;9.90;3.95;;;;;;;15.14;100.00;100687.69;5031033;28;20489;-76
2022/09/14 01:12:05;;;;;;;10.80;4.45;;;;;;;15.12;100.00;100681.69;5047100;28;20055;-79
2022/09/14 01:14:47;;;;;;;10.40;4.65;;;;;;;15.07;100.00;100678.66;5028815;28;20036;-76
2022/09/14 01:17:38;;;;;;;13.20;5.13;;;;;;;15.04;100.00;100666.53;5032178;28;20351;-80
2022/09/14 01:20:19;;;;;;;10.18;4.82;;;;;;;14.97;100.00;100676.06;5031512;28;20275;-80
2022/09/14 01:23:10;;;;;;;13.25;4.95;;;;;;;15.05;100.00;100679.63;5014215;28;20029;-81
2022/09/14 01:25:57;;;;;;;11.00;4.95;;;;;;;15.05;100.00;100678.81;5017859;28;20100;-81
2022/09/14 01:28:31;;;;;;;12.77;4.70;;;;;;;15.04;100.00;100682.44;5049613;28;20100;-81
2022/09/14 01:31:01;;;;;;;6.35;3.85;;;;;;;15.00;100.00;100683.72;5045744;28;20108;-75
2022/09/14 01:33:34;;;;;;;12.45;4.40;;;;;;;14.90;100.00;100685.56;5036118;28;20032;-81
2022/09/14 01:36:03;;;;;;;12.10;4.38;;;;;;;14.91;100.00;100680.13;5033693;28;20024;-81
2022/09/14 01:38:42;;;;;;;10.18;4.07;;;;;;;14.90;100.00;100683.75;5047971;28;20029;-80
2022/09/14 01:41:14;;;;;;;10.88;4.05;;;;;;;14.90;100.00;100682.91;5022637;28;20120;-80
2022/09/14 01:43:53;;;;;;;12.43;4.43;;;;;;;14.90;100.00;100674.97;5030618;28;20065;-80
2022/09/14 01:46:25;;;;;;;12.35;4.07;;;;;;;14.83;100.00;100674.72;5029056;28;20374;-81
2022/09/14 01:49:02;;;;;;;8.95;3.88;;;;;;;14.83;100.00;100668.59;5027599;28;20485;-80
2022/09/14 01:51:35;;;;;;;9.68;3.70;;;;;;;14.80;100.00;100668.84;5044271;28;20025;-81
2022/09/14 01:54:11;;;;;;;13.40;3.63;;;;;;;14.78;100.00;100671.66;5035893;28;20105;-80
2022/09/14 01:57:16;;;;;;;9.85;3.65;;;;;;;14.80;100.00;100660.91;5031383;28;20409;-81
2022/09/14 01:59:44;;;;;;;10.45;3.63;;;;;;;14.71;100.00;100667.91;5037630;28;20476;-81
2022/09/14 02:02:21;;;;;;;10.82;3.60;;;;;;;14.62;100.00;100659.03;5042270;28;20478;-80
2022/09/14 02:05:08;;;;;;;16.25;4.00;;;;;;;14.64;100.00;100661.53;5031903;28;20035;-81
2022/09/14 02:07:35;;;;;;;8.90;3.38;;;;;;;14.58;100.00;100662.09;5032145;28;20390;-76
2022/09/14 02:10:03;;;;;;;9.38;3.55;;;;;;;14.59;100.00;100656.66;5035803;28;20025;-80
2022/09/14 02:12:29;;;;;;;9.45;3.75;;;;;;;14.56;100.00;100658.78;5032548;28;20484;-81
2022/09/14 02:14:54;;;;;;;13.15;3.97;;;;;;;14.55;100.00;100660.59;5051159;28;20043;-76
2022/09/14 02:17:21;;;;;;;11.07;4.28;;;;;;;14.57;100.00;100661.28;5041773;28;20083;-81
2022/09/14 02:19:58;;;;;;;12.73;3.97;;;;;;;14.53;100.00;100662.53;5030740;28;20044;-80
2022/09/14 02:22:26;;;;;;;11.07;4.10;;;;;;;14.49;100.00;100663.81;5031499;28;20028;-81
2022/09/14 02:24:51;;;;;;;10.15;3.25;;;;;;;14.54;100.00;100663.38;5015155;28;20055;-80
2022/09/14 02:27:17;;;;;;;10.52;3.38;;;;;;;14.50;100.00;100659.34;5033970;28;20057;-75
2022/09/14 02:29:42;;;;;;;9.23;3.30;;;;;;;14.51;100.00;100663.66;5025354;28;20055;-75
2022/09/14 02:32:26;;;;;;;14.93;3.63;;;;;;;14.48;100.00;100664.78;5035517;28;20083;-79
2022/09/14 02:35:14;;;;;;;7.97;3.15;;;;;;;14.50;100.00;100680.53;5014546;28;20025;-75
2022/09/14 02:38:04;;;;;;;9.43;3.17;;;;;;;14.46;100.00;100671.19;5046525;28;20032;-75
2022/09/14 02:41:01;;;;;;;10.88;3.67;;;;;;;14.54;100.00;100668.66;5010551;28;20554;-79
2022/09/14 02:43:48;;;;;;;10.65;3.50;;;;;;;14.55;100.00;100659.75;5054537;28;20059;-79
2022/09/14 02:46:43;;;;;;;9.20;3.45;;;;;;;14.57;100.00;100663.09;5040950;28;20028;-80
2022/09/14 02:49:17;;;;;;;9.98;3.38;;;;;;;14.53;100.00;100667.00;5048977;28;20051;-79
2022/09/14 02:51:56;;;;;;;7.82;3.67;;;;;;;14.50;100.00;100656.69;5041758;28;20025;-80
2022/09/14 02:54:41;;;;;;;10.65;3.58;;;;;;;14.58;100.00;100659.47;5031038;28;20083;-76
2022/09/14 02:57:06;;;;;;;10.52;3.95;;;;;;;14.51;100.00;100647.78;5029761;28;20025;-80
2022/09/14 02:59:32;;;;;;;11.63;3.83;;;;;;;14.53;100.00;100649.31;5012251;28;20104;-76
2022/09/14 03:01:59;;;;;;;8.48;3.65;;;;;;;14.54;100.00;100647.50;5025684;28;20067;-80
2022/09/14 03:04:24;;;;;;;9.77;3.50;;;;;;;14.48;100.00;100634.84;5030423;28;20432;-80
2022/09/14 03:06:49;;;;;;;10.77;3.42;;;;;;;14.50;100.00;100643.47;5031957;28;20033;-80
2022/09/14 03:09:15;;;;;;;10.82;3.80;;;;;;;14.44;100.00;100636.94;5031275;28;20041;-80
2022/09/14 03:11:40;;;;;;;11.20;3.80;;;;;;;14.36;100.00;100634.94;5046250;28;20444;-80
2022/09/14 03:14:06;;;;;;;12.57;4.00;;;;;;;14.39;100.00;100634.66;5049819;28;20381;-80
2022/09/14 03:16:31;;;;;;;11.93;3.97;;;;;;;14.41;100.00;100629.25;5049519;28;20097;-79
2022/09/14 03:18:56;;;;;;;12.18;3.83;;;;;;;14.44;100.00;100628.16;5047649;28;20021;-79
2022/09/14 03:21:22;;;;;;;11.00;3.65;;;;;;;14.36;100.00;100629.66;5028819;28;20044;-79
2022/09/14 03:23:50;;;;;;;11.30;3.97;;;;;;;14.39;100.00;100639.13;5029163;28;20021;-80
2022/09/14 03:26:21;;;;;;;10.40;3.58;;;;;;;14.39;100.00;100629.38;5041593;28;20281;-79
2022/09/14 03:28:58;;;;;;;9.20;3.35;;;;;;;14.38;100.00;100633.00;5033701;28;20108;-76
2022/09/14 03:31:25;;;;;;;11.05;3.78;;;;;;;14.39;100.00;100625.88;5038898;28;20472;-75
2022/09/14 03:33:55;;;;;;;11.90;3.80;;;;;;;14.34;100.00;100620.19;5031627;28;20021;-75
2022/09/14 03:36:21;;;;;;;9.63;4.00;;;;;;;14.34;100.00;100610.44;5026738;28;20121;-79
2022/09/14 03:38:51;;;;;;;10.88;4.18;;;;;;;14.33;100.00;100614.06;5047326;28;20111;-79
2022/09/14 03:41:17;;;;;;;11.18;3.60;;;;;;;14.27;100.00;100609.34;5039784;28;20140;-79
2022/09/14 03:43:44;;;;;;;11.15;3.85;;;;;;;14.29;100.00;100602.09;5026947;28;20481;-79
2022/09/14 03:46:15;;;;;;;10.25;3.65;;;;;;;14.22;100.00;100611.59;5022527;28;20054;-81
2022/09/14 03:48:41;;;;;;;10.65;3.80;;;;;;;14.21;100.00;100599.34;5019210;28;20025;-80
2022/09/14 03:51:08;;;;;;;9.02;3.45;;;;;;;14.17;100.00;100607.69;5031763;28;20052;-79
2022/09/14 03:53:35;;;;;;;13.13;3.83;;;;;;;14.15;100.00;100607.00;5036714;28;20068;-76
2022/09/14 03:56:04;;;;;;;10.85;3.53;;;;;;;14.15;100.00;100594.63;5017298;28;20033;-80
2022/09/14 03:58:31;;;;;;;15.20;3.78;;;;;;;14.11;100.00;100593.22;5030302;28;20108;-81
2022/09/14 04:01:08;;;;;;;12.13;3.38;;;;;;;14.12;100.00;100594.91;5037833;28;20063;-80
2022/09/14 04:03:34;;;;;;;10.32;3.67;;;;;;;14.11;100.00;100587.94;5045913;28;20052;-80
2022/09/14 04:06:04;;;;;;;10.50;3.10;;;;;;;14.09;100.00;100592.53;5048212;28;20048;-80
2022/09/14 04:08:29;;;;;;;14.23;3.67;;;;;;;14.04;100.00;100597.44;5014994;28;20391;-80
2022/09/14 04:10:58;;;;;;;10.10;3.13;;;;;;;14.03;100.00;100593.13;5037732;28;20418;-80
2022/09/14 04:13:23;;;;;;;15.00;4.13;;;;;;;14.03;100.00;100595.75;5048595;28;20033;-80
2022/09/14 04:15:59;;;;;;;10.30;3.33;;;;;;;14.08;100.00;100598.81;5036703;28;20029;-80
2022/09/14 04:18:26;;;;;;;9.18;3.30;;;;;;;14.00;100.00;100593.38;5029054;28;20035;-79
2022/09/14 04:21:02;;;;;;;12.23;3.35;;;;;;;14.00;100.00;100596.00;5028977;28;20037;-79
2022/09/14 04:23:28;;;;;;;9.02;3.03;;;;;;;13.99;100.00;100586.41;5030386;28;20033;-79
2022/09/14 04:25:54;;;;;;;11.02;3.25;;;;;;;14.02;100.00;100588.81;5047593;28;20495;-79
2022/09/14 04:28:20;;;;;;;10.65;3.00;;;;;;;13.90;100.00;100584.63;5031711;28;20536;-80
2022/09/14 04:31:01;;;;;;;11.25;3.55;;;;;;;13.90;100.00;100587.25;5032205;28;20039;-80
2022/09/14 04:33:31;;;;;;;9.70;3.55;;;;;;;13.88;100.00;100578.63;5038605;28;20528;-79
2022/09/14 04:35:58;;;;;;;7.78;3.40;;;;;;;13.92;100.00;100580.84;5043904;28;20107;-76
2022/09/14 04:38:24;;;;;;;11.35;3.15;;;;;;;13.84;100.00;100574.63;5047122;28;20061;-76
2022/09/14 04:40:49;;;;;;;11.13;3.50;;;;;;;13.80;100.00;100577.53;5047237;28;20496;-80
2022/09/14 04:43:14;;;;;;;9.38;3.38;;;;;;;13.79;100.00;100575.88;5047663;28;20691;-80
2022/09/14 04:45:40;;;;;;;9.90;3.58;;;;;;;13.84;100.00;100577.25;5030150;28;20135;-80
2022/09/14 04:48:06;;;;;;;12.60;3.47;;;;;;;13.79;100.00;100567.94;5047262;28;20239;-80
2022/09/14 04:50:32;;;;;;;11.05;3.13;;;;;;;13.82;100.00;100565.97;5042687;28;20112;-80
2022/09/14 04:52:57;;;;;;;12.15;3.10;;;;;;;13.79;100.00;100570.59;5021071;28;20033;-80
2022/09/14 04:55:23;;;;;;;11.20;3.63;;;;;;;13.82;100.00;100568.63;5019988;28;20396;-79
2022/09/14 04:57:48;;;;;;;9.57;3.70;;;;;;;13.87;100.00;100561.09;5032675;28;20029;-80
2022/09/14 05:00:14;;;;;;;13.55;3.15;;;;;;;13.78;100.00;100560.97;5031270;28;20032;-76
2022/09/14 05:02:40;;;;;;;10.77;3.05;;;;;;;13.79;100.00;100559.16;5033863;28;20040;-76
2022/09/14 05:05:06;;;;;;;12.50;3.00;;;;;;;13.79;100.00;100557.34;5032481;28;20025;-79
2022/09/14 05:07:31;;;;;;;9.15;3.10;;;;;;;13.76;100.00;100547.06;5031774;28;20400;-80
2022/09/14 05:09:57;;;;;;;9.93;2.85;;;;;;;13.82;100.00;100552.75;5033554;28;20072;-75
2022/09/14 05:12:22;;;;;;;12.38;3.10;;;;;;;13.82;100.00;100550.13;5034383;28;20032;-79
2022/09/14 05:14:48;;;;;;;8.55;2.70;;;;;;;13.85;100.00;100544.53;5051393;28;20048;-76
2022/09/14 05:17:13;;;;;;;7.18;2.63;;;;;;;13.90;100.00;100542.31;5032309;28;20433;-76
2022/09/14 05:19:38;;;;;;;14.02;2.85;;;;;;;13.86;100.00;100544.41;5015570;28;20053;-76
2022/09/14 05:22:04;;;;;;;9.98;3.05;;;;;;;13.84;100.00;100549.00;5032902;28;20437;-76
2022/09/14 05:24:29;;;;;;;8.20;2.83;;;;;;;13.89;100.00;100549.41;5033945;28;20037;-79
2022/09/14 05:26:54;;;;;;;8.52;2.65;;;;;;;13.90;100.00;100552.88;5025212;28;20032;-79
2022/09/14 05:29:20;;;;;;;8.75;3.22;;;;;;;13.93;100.00;100558.72;5031823;28;20120;-80
2022/09/14 05:31:45;;;;;;;11.90;2.83;;;;;;;13.94;100.00;100560.38;5030698;28;20103;-80
2022/09/14 05:34:11;;;;;;;12.07;3.63;;;;;;;13.97;100.00;100551.34;5048945;28;20523;-80
2022/09/14 05:36:37;;;;;;;11.25;3.50;;;;;;;13.93;100.00;100548.13;5032979;28;20484;-79
2022/09/14 05:39:04;;;;;;;12.95;3.83;;;;;;;13.89;100.00;100552.03;5033725;28;20113;-80
2022/09/14 05:41:29;;;;;;;13.30;3.47;;;;;;;13.92;100.00;100553.56;5012980;28;20064;-79
2022/09/14 05:43:54;;;;;;;8.57;3.15;;;;;;;13.90;100.00;100558.16;5020207;28;20045;-79
2022/09/14 05:46:20;;;;;;;10.63;3.25;;;;;;;13.90;100.00;100553.72;5049941;28;20032;-79
2022/09/14 05:48:46;;;;;;;11.43;3.20;;;;;;;13.88;100.00;100562.78;5029707;28;20443;-80
2022/09/14 05:51:17;;;;;;;10.27;3.45;;;;;;;13.91;100.00;100570.41;5047437;28;20021;-80
2022/09/14 05:53:54;;;;;;;9.45;3.42;;;;;;;13.91;100.00;100570.41;5030080;28;20028;-80
2022/09/14 05:56:21;;;;;;;11.23;3.60;;;;;;;13.90;100.00;100564.28;5049901;28;20414;-77
2022/09/14 05:58:47;;;;;;;10.40;3.75;;;;;;;13.89;100.00;100567.09;5051036;28;20372;-77
2022/09/14 06:01:21;;;;;;;11.60;3.90;;;;;;;13.92;100.00;100564.16;5050109;28;20123;-76
2022/09/14 06:03:47;;;;;;;11.50;4.40;;;;;;;13.83;100.00;100567.66;5048638;28;20029;-80
2022/09/14 06:06:16;;;;;;;10.13;3.63;;;;;;;13.78;100.00;100568.91;5038172;28;20056;-80
2022/09/14 06:08:43;;;;;;;8.00;3.65;;;;;;;13.83;100.00;100570.28;5031853;28;20032;-81
2022/09/14 06:11:14;;;;;;;12.32;3.78;;;;;;;13.79;100.00;100575.88;5016743;28;20052;-81
2022/09/14 06:13:40;;;;;;;10.68;4.32;;;;;;;13.82;100.00;100571.28;5051346;28;20146;-80
2022/09/14 06:16:07;;;;;;;12.70;4.68;;;;;;;13.88;100.00;100576.00;5048662;28;20116;-81
2022/09/14 06:18:34;;;;;;;9.25;4.47;;;;;;;13.84;100.00;100578.09;5030833;28;20485;-81
2022/09/14 06:21:00;;;;;;;9.50;4.35;;;;;;;13.89;100.00;100582.94;5032046;28;20543;-81
2022/09/14 06:23:27;;;;;;;10.95;3.97;;;;;;;13.84;100.00;100580.72;5038442;28;20037;-80
2022/09/14 06:26:01;;;;;;;9.18;4.22;;;;;;;13.83;100.00;100578.22;5049348;28;20029;-81
2022/09/14 06:28:28;;;;;;;7.25;3.90;;;;;;;13.83;100.00;100579.06;5041757;28;20112;-79
2022/09/14 06:30:54;;;;;;;11.20;4.15;;;;;;;13.87;100.00;100579.63;5039562;28;20031;-80
2022/09/14 06:33:21;;;;;;;10.88;4.35;;;;;;;13.91;100.00;100581.00;5024831;28;20040;-76
2022/09/14 06:35:57;;;;;;;11.88;4.55;;;;;;;13.87;100.00;100579.63;5041188;28;20093;-80
2022/09/14 06:38:23;;;;;;;8.35;4.45;;;;;;;13.84;100.00;100569.31;5040805;28;20036;-80
2022/09/14 06:40:59;;;;;;;11.30;5.00;;;;;;;13.85;100.00;100565.69;5039165;28;20544;-80
2022/09/14 06:43:31;;;;;;;10.02;4.65;;;;;;;13.80;100.00;100572.25;5039946;28;20020;-79
2022/09/14 06:46:18;;;;;;;10.13;4.45;;;;;;;13.79;100.00;100567.94;5039045;28;20477;-81
2022/09/14 06:48:47;;;;;;;10.85;4.00;;;;;;;13.62;100.00;100560.72;5041813;28;20380;-80
2022/09/14 06:51:23;;;;;;;7.43;3.58;;;;;;;13.60;100.00;100562.66;5040305;28;20155;-78
2022/09/14 06:53:49;;;;;;;9.15;4.38;;;;;;;13.65;100.00;100554.31;5042771;28;20025;-80
2022/09/14 06:56:15;;;;;;;8.07;3.70;;;;;;;13.64;100.00;100552.66;5040343;28;20023;-78
2022/09/14 06:58:41;;;;;;;10.60;4.35;;;;;;;13.63;100.00;100557.09;5029636;28;20397;-75
2022/09/14 07:01:14;;;;;;;7.00;3.97;;;;;;;13.62;100.00;100551.97;5040142;28;20032;-78
2022/09/14 07:03:42;;;;;;;11.85;4.75;;;;;;;13.65;100.00;100549.88;5039254;28;20009;-75
2022/09/14 07:06:11;;;;;;;12.20;3.97;;;;;;;13.66;100.00;100546.25;5030234;28;20025;-78
2022/09/14 07:08:37;;;;;;;8.23;3.30;;;;;;;13.66;100.00;100542.78;5042272;28;20030;-79
2022/09/14 07:11:04;;;;;;;6.60;3.65;;;;;;;13.70;100.00;100541.50;5023638;28;20029;-78
2022/09/14 07:13:30;;;;;;;10.30;4.28;;;;;;;13.67;100.00;100537.34;5049179;28;20033;-79
2022/09/14 07:15:56;;;;;;;11.18;4.38;;;;;;;13.70;100.00;100537.06;5050105;28;20032;-78
2022/09/14 07:18:26;;;;;;;8.30;4.53;;;;;;;13.72;100.00;100534.28;5049704;28;20029;-79
2022/09/14 07:20:54;;;;;;;9.30;5.40;;;;;;;13.68;100.00;100541.66;5049449;28;20405;-79
2022/09/14 07:23:20;;;;;;;9.95;5.40;;;;;;;13.69;100.00;100538.03;5047517;28;20025;-78
2022/09/14 07:25:45;;;;;;;11.90;4.07;;;;;;;13.61;100.00;100537.91;5028391;28;20552;-79
2022/09/14 07:28:11;;;;;;;9.10;3.90;;;;;;;13.62;100.00;100534.28;5019300;28;20029;-79
2022/09/14 07:30:37;;;;;;;9.10;4.35;;;;;;;13.65;100.00;100533.19;5039418;28;20021;-78
2022/09/14 07:33:04;;;;;;;11.35;4.60;;;;;;;13.68;100.00;100544.28;5049501;28;20025;-79
2022/09/14 07:35:30;;;;;;;9.88;4.10;;;;;;;13.66;100.00;100537.47;5048157;28;20188;-79
2022/09/14 07:37:56;;;;;;;9.57;4.50;;;;;;;13.68;100.00;100539.00;5044248;28;20035;-78
2022/09/14 07:40:22;;;;;;;11.02;4.68;;;;;;;13.69;100.00;100543.31;5029933;28;20025;-78
2022/09/14 07:42:52;;;;;;;10.07;4.88;;;;;;;13.67;100.00;100541.78;5018826;28;20045;-79
2022/09/14 07:45:18;;;;;;;8.30;5.43;;;;;;;13.55;100.00;100533.16;5039359;28;20045;-78
2022/09/14 07:47:43;;;;;;;6.45;5.38;;;;;;;13.59;100.00;100529.25;5039642;28;20396;-79
2022/09/14 07:50:12;;;;;;;9.45;5.18;;;;;;;13.62;100.00;100529.00;5010988;28;20450;-84
2022/09/14 07:52:38;;;;;;;9.35;5.45;;;;;;;13.67;100.00;100531.22;5026744;28;20396;-82
2022/09/14 07:55:05;;;;;;;8.57;4.68;;;;;;;13.68;100.00;100533.72;5030709;28;20033;-77
2022/09/14 07:57:30;;;;;;;6.88;5.10;;;;;;;13.68;100.00;100532.88;5024579;28;20446;-81
2022/09/14 07:59:59;;;;;;;8.73;5.28;;;;;;;13.70;100.00;100537.06;5017208;28;20034;-82
2022/09/14 08:02:29;;;;;;;9.82;5.20;;;;;;;13.63;100.00;100530.66;5028964;28;20028;-82
2022/09/14 08:04:58;;;;;;;9.98;5.25;;;;;;;13.67;100.00;100531.22;5036357;28;20020;-81
2022/09/14 08:07:24;;;;;;;7.70;4.95;;;;;;;13.68;100.00;100532.88;5048698;28;20028;-81
2022/09/14 08:09:49;;;;;;;7.25;5.00;;;;;;;13.69;100.00;100539.84;5020978;28;20021;-79
2022/09/14 08:12:15;;;;;;;11.25;5.03;;;;;;;13.67;100.00;100529.41;5046828;28;20739;-77
2022/09/14 08:14:41;;;;;;;8.23;5.40;;;;;;;13.73;100.00;100530.66;5016162;28;20083;-78
2022/09/14 08:17:06;;;;;;;9.90;5.28;;;;;;;13.74;100.00;100532.31;5048304;28;20020;-81
2022/09/14 08:19:32;;;;;;;11.40;5.57;;;;;;;13.76;100.00;100531.19;5018980;28;20117;-78
2022/09/14 08:21:57;;;;;;;10.70;5.75;;;;;;;13.81;100.00;100522.84;5044316;28;20448;-77
2022/09/14 08:24:22;;;;;;;11.82;5.93;;;;;;;13.82;100.00;100523.66;5045489;28;20024;-76
2022/09/14 08:26:48;;;;;;;12.63;6.18;;;;;;;13.81;100.00;100528.13;5018223;28;20031;-76
2022/09/14 08:29:16;;;;;;;8.40;5.40;;;;;;;13.74;100.00;100527.03;5042606;28;20026;-77
2022/09/14 08:31:43;;;;;;;8.90;5.32;;;;;;;13.75;100.00;100526.06;5045920;28;20051;-77
2022/09/14 08:34:08;;;;;;;9.57;5.55;;;;;;;13.79;100.00;100530.91;5031193;28;20117;-77
2022/09/14 08:36:36;;;;;;;9.40;5.22;;;;;;;13.85;100.00;100533.97;5039261;28;20104;-76
2022/09/14 08:39:02;;;;;;;12.23;5.30;;;;;;;13.86;100.00;100530.34;5012733;28;20363;-77
2022/09/14 08:41:31;;;;;;;11.65;5.35;;;;;;;13.86;100.00;100538.28;5031178;28;20456;-78
2022/09/14 08:44:19;;;;;;;11.52;5.85;;;;;;;13.93;100.00;100544.66;5013100;28;20034;-79
2022/09/14 08:46:48;;;;;;;9.70;5.70;;;;;;;13.89;100.00;100544.13;5038051;28;20059;-75
2022/09/14 08:49:35;;;;;;;11.55;6.13;;;;;;;14.00;100.00;100546.59;5024672;28;20207;-79
2022/09/14 08:52:01;;;;;;;8.27;6.20;;;;;;;13.96;100.00;100541.72;5048767;28;20032;-80
2022/09/14 08:54:26;;;;;;;8.93;6.00;;;;;;;14.07;100.00;100539.78;5050118;28;20035;-79
2022/09/14 08:57:06;;;;;;;12.20;6.72;;;;;;;14.09;100.00;100543.09;5052071;28;20025;-80
2022/09/14 09:00:00;;;;;;;12.15;7.60;;;;;;;14.13;100.00;100545.47;5030288;28;20473;-80
2022/09/14 09:02:44;;;;;;;15.32;7.80;;;;;;;14.18;100.00;100545.88;5041177;28;20497;-80
2022/09/14 09:05:28;;;;;;;13.20;8.43;;;;;;;14.22;100.00;100537.50;5050982;28;20071;-80
2022/09/14 09:08:36;;;;;;;15.40;7.93;;;;;;;14.30;100.00;100539.41;5052300;28;20686;-77
2022/09/14 09:11:04;;;;;;;16.13;8.23;;;;;;;14.22;100.00;100545.44;5051499;28;20025;-76
2022/09/14 09:13:34;;;;;;;11.75;8.30;;;;;;;14.15;100.00;100547.00;5046004;28;20370;-80
2022/09/14 09:16:11;;;;;;;14.82;9.25;;;;;;;14.21;100.00;100545.56;5045407;28;20024;-79
2022/09/14 09:18:49;;;;;;;11.77;8.40;;;;;;;14.21;100.00;100541.13;5047182;28;20020;-80
2022/09/14 09:21:24;;;;;;;15.00;9.50;;;;;;;14.24;100.00;100535.53;5047644;28;20075;-80
2022/09/14 09:23:50;;;;;;;15.15;10.38;;;;;;;14.28;100.00;100531.63;5048926;28;20032;-80
2022/09/14 09:26:24;;;;;;;13.95;10.07;;;;;;;14.32;100.00;100537.44;5049445;28;20220;-80
2022/09/14 09:28:53;;;;;;;17.58;10.82;;;;;;;14.33;100.00;100531.19;5029886;28;20032;-76
2022/09/14 09:31:35;;;;;;;17.92;9.95;;;;;;;14.30;100.00;100534.13;5025474;28;20048;-79
2022/09/14 09:34:01;;;;;;;16.17;10.55;;;;;;;14.32;100.00;100533.00;5029206;28;20021;-81
2022/09/14 09:36:33;;;;;;;14.45;10.77;;;;;;;14.30;100.00;100529.66;5032581;28;20099;-81
2022/09/14 09:38:59;;;;;;;12.55;10.40;;;;;;;14.37;100.00;100521.97;5047546;28;20028;-76
2022/09/14 09:41:30;;;;;;;15.85;11.23;;;;;;;14.45;100.00;100529.22;5048534;28;20370;-77
2022/09/14 09:43:59;;;;;;;16.38;10.80;;;;;;;14.47;100.00;100530.75;5029444;28;20049;-76
2022/09/14 09:46:27;;;;;;;13.90;10.68;;;;;;;14.51;100.00;100536.59;5023133;28;20056;-81
2022/09/14 09:48:53;;;;;;;12.75;10.55;;;;;;;14.51;100.00;100540.06;5049753;28;20021;-76
2022/09/14 09:51:30;;;;;;;14.45;9.98;;;;;;;14.57;100.00;100533.34;5027605;28;20016;-76
2022/09/14 09:54:22;;;;;;;19.83;10.88;;;;;;;14.61;100.00;100535.56;5040827;28;20511;-76
2022/09/14 09:57:03;;;;;;;15.30;10.23;;;;;;;14.65;100.00;100534.28;5051021;28;20027;-81
2022/09/14 09:59:37;;;;;;;13.55;10.32;;;;;;;14.64;100.00;100534.41;5044387;28;20024;-75
2022/09/14 10:02:21;;;;;;;12.02;10.50;;;;;;;14.76;100.00;100527.94;5024485;28;20481;-75
2022/09/14 10:05:06;;;;;;;14.02;9.95;;;;;;;14.69;100.00;100534.81;5037997;28;20043;-79
2022/09/14 10:07:40;;;;;;;12.75;9.75;;;;;;;14.62;100.00;100528.44;5050392;28;20025;-80
2022/09/14 10:10:09;;;;;;;14.15;9.88;;;;;;;14.67;100.00;100537.59;5044563;28;20036;-80
2022/09/14 10:12:37;;;;;;;15.35;11.13;;;;;;;14.64;100.00;100542.38;5031649;28;20061;-80
2022/09/14 10:15:15;;;;;;;13.43;10.40;;;;;;;14.71;100.00;100538.13;5062375;28;20028;-76
2022/09/14 10:17:53;;;;;;;15.15;11.05;;;;;;;14.79;100.00;100532.94;5032920;28;20393;-76
2022/09/14 10:20:24;;;;;;;15.98;10.50;;;;;;;14.92;100.00;100524.66;5046956;28;20108;-75
2022/09/14 10:22:50;;;;;;;16.05;10.35;;;;;;;14.83;100.00;100533.50;5025752;28;20075;-76
2022/09/14 10:25:15;;;;;;;15.15;9.15;;;;;;;14.87;100.00;100527.75;5029930;28;20436;-75
2022/09/14 10:27:53;;;;;;;12.13;9.65;;;;;;;14.84;100.00;100530.69;5037492;28;20033;-76
2022/09/14 10:30:20;;;;;;;14.63;9.57;;;;;;;14.74;100.00;100533.38;5050038;28;20086;-77
2022/09/14 10:32:54;;;;;;;14.88;9.98;;;;;;;14.80;100.00;100533.78;5034882;28;20057;-80
2022/09/14 10:35:25;;;;;;;13.10;9.65;;;;;;;14.74;100.00;100535.19;5034411;28;20048;-80
2022/09/14 10:38:35;;;;;;;12.55;9.43;;;;;;;14.80;100.00;100531.94;5040764;28;20526;-80
2022/09/14 10:41:18;;;;;;;15.07;9.63;;;;;;;14.74;100.00;100528.09;5046852;28;20025;-80
2022/09/14 10:44:20;;;;;;;13.15;9.13;;;;;;;14.79;100.00;100524.16;5038125;28;20044;-80
2022/09/14 10:47:06;;;;;;;11.00;8.73;;;;;;;14.72;100.00;100519.47;5029268;28;20064;-80
2022/09/14 10:49:50;;;;;;;14.32;9.82;;;;;;;14.73;100.00;100518.47;5035155;28;20032;-79
2022/09/14 10:52:40;;;;;;;14.20;9.10;;;;;;;14.65;100.00;100523.69;5048596;28;20215;-79
2022/09/14 10:55:35;;;;;;;12.50;9.43;;;;;;;14.69;100.00;100529.50;5048458;28;20029;-80
2022/09/14 10:58:16;;;;;;;10.90;9.52;;;;;;;14.78;100.00;100531.28;5021317;28;20027;-76
2022/09/14 11:00:58;;;;;;;11.43;9.60;;;;;;;14.83;100.00;100529.03;5018283;28;20036;-76
2022/09/14 11:03:37;;;;;;;14.20;10.27;;;;;;;14.87;100.00;100529.56;5029985;28;20359;-80
2022/09/14 11:06:26;;;;;;;12.90;9.27;;;;;;;14.93;100.00;100521.84;5028541;28;20428;-80
2022/09/14 11:09:23;;;;;;;14.07;10.30;;;;;;;15.00;100.00;100516.78;5033315;28;20026;-81
2022/09/14 11:12:16;;;;;;;10.85;9.27;;;;;;;14.95;100.00;100513.75;5009686;28;20114;-80
2022/09/14 11:15:01;;;;;;;12.38;9.75;;;;;;;14.96;100.00;100515.41;4984588;28;20037;-80
2022/09/14 11:17:53;;;;;;;9.93;7.20;;;;;;;14.92;100.00;100514.88;5045031;28;20385;-75
2022/09/14 11:20:27;;;;;;;8.48;5.88;;;;;;;14.85;100.00;100511.19;5044321;28;20370;-76
2022/09/14 11:23:01;;;;;;;9.77;6.53;;;;;;;14.91;100.00;100505.28;5029597;28;20021;-80
2022/09/14 11:25:58;;;;;;;10.02;8.02;;;;;;;14.86;100.00;100504.91;5029407;28;20082;-80
2022/09/14 11:28:27;;;;;;;12.05;7.43;;;;;;;14.85;100.00;100503.22;5029869;28;20397;-80
2022/09/14 11:31:04;;;;;;;9.15;6.20;;;;;;;14.84;100.00;100506.88;5013618;28;20039;-81
2022/09/14 11:33:38;;;;;;;9.32;5.47;;;;;;;14.74;100.00;100506.06;5028755;28;20128;-80